Time;durP1;ratioP1;P1;durP2;ratioP2;P2;SDS_P1;SDS_P2;PMS_P1;PMS_P2;Temp;Humidity;BMP_temperature;BMP_pressure;BME280_temperature;BME280_humidity;BME280_pressure;Samples;Min_cycle;Max_cycle;Signal;HPM_P1;HPM_P2
2021/03/02 00:01:00;;;;;;;56.88;32.17;;;;;;;2.45;84.95;101712.55;254275;1104;115061;-63
2021/03/02 00:06:03;;;;;;;55.65;32.10;;;;;;;2.49;84.68;101704.26;254463;1105;116512;-64
2021/03/02 00:11:06;;;;;;;63.70;33.85;;;;;;;2.55;83.84;101705.53;254394;1105;115441;-62
2021/03/02 00:16:11;;;;;;;64.70;30.25;;;;;;;2.59;84.93;101709.56;253354;1105;116249;-65
2021/03/02 00:21:24;;;;;;;54.77;28.02;;;;;;;2.52;84.26;101705.80;254273;1105;115989;-65
2021/03/02 00:26:31;;;;;;;62.45;34.60;;;;;;;2.50;83.39;101708.55;251688;1105;116484;-64
2021/03/02 00:31:35;;;;;;;73.60;38.25;;;;;;;2.56;84.75;101697.50;253019;1105;116290;-67
2021/03/02 00:36:40;;;;;;;53.48;29.55;;;;;;;2.55;84.39;101689.73;253137;1105;115701;-65
2021/03/02 00:41:44;;;;;;;21.33;13.68;;;;;;;2.48;83.89;101701.76;252706;1105;115439;-63
2021/03/02 00:46:49;;;;;;;55.67;27.70;;;;;;;2.57;84.44;101698.33;252862;1105;115159;-64
2021/03/02 00:51:54;;;;;;;35.63;17.17;;;;;;;2.49;83.49;101690.27;253305;1105;116618;-62
2021/03/02 00:56:57;;;;;;;58.28;32.48;;;;;;;2.50;84.66;101687.50;252418;1104;115834;-63
2021/03/02 01:02:01;;;;;;;50.47;28.67;;;;;;;2.49;85.00;101680.56;252682;1105;116332;-66
2021/03/02 01:07:05;;;;;;;37.17;20.57;;;;;;;2.43;84.24;101673.23;252453;1104;114960;-64
2021/03/02 01:12:10;;;;;;;62.85;32.28;;;;;;;2.51;85.09;101685.70;251596;1105;115292;-68
2021/03/02 01:17:14;;;;;;;28.00;12.45;;;;;;;2.42;85.48;101681.27;252197;1105;137831;-64
2021/03/02 01:22:19;;;;;;;60.52;34.92;;;;;;;2.51;85.55;101678.63;251957;1105;116220;-63
2021/03/02 01:27:23;;;;;;;58.23;33.30;;;;;;;2.52;84.00;101679.47;252262;1105;115971;-64
2021/03/02 01:32:29;;;;;;;58.63;32.75;;;;;;;2.51;85.61;101662.84;252892;1105;116235;-68
2021/03/02 01:37:33;;;;;;;66.17;34.58;;;;;;;2.50;85.30;101665.61;251777;1104;116542;-65
2021/03/02 01:42:37;;;;;;;64.17;30.17;;;;;;;2.46;85.59;101656.31;252365;1105;117053;-63
2021/03/02 01:47:42;;;;;;;63.23;31.15;;;;;;;2.46;84.98;101653.68;253356;1105;116874;-65
2021/03/02 01:52:47;;;;;;;80.47;40.92;;;;;;;2.54;84.67;101652.05;253699;1105;117414;-65
2021/03/02 01:57:50;;;;;;;62.27;34.03;;;;;;;2.57;85.17;101646.51;254604;1104;115256;-66
2021/03/02 02:03:24;;;;;;;65.35;31.48;;;;;;;2.59;84.27;101641.11;253890;1105;114909;-64
2021/03/02 02:08:37;;;;;;;44.05;23.95;;;;;;;2.54;85.49;101638.05;252996;1104;115600;-64
2021/03/02 02:13:48;;;;;;;54.18;28.75;;;;;;;2.60;84.77;101640.97;254910;1105;115982;-64
2021/03/02 02:18:54;;;;;;;54.15;29.42;;;;;;;2.62;84.88;101631.14;254069;1105;116606;-67
2021/03/02 02:24:23;;;;;;;46.35;22.15;;;;;;;2.61;84.74;101640.00;253925;1104;115215;-63
2021/03/02 02:29:32;;;;;;;41.88;25.32;;;;;;;2.62;85.10;101640.84;252770;1105;115112;-63
2021/03/02 02:34:37;;;;;;;40.88;20.88;;;;;;;2.67;84.52;101634.20;252895;1105;116551;-66
2021/03/02 02:39:41;;;;;;;42.62;22.52;;;;;;;2.69;85.51;101632.27;253057;1104;117879;-65
2021/03/02 02:44:49;;;;;;;72.00;34.83;;;;;;;2.72;84.38;101622.42;252937;1104;115193;-63
2021/03/02 02:49:53;;;;;;;48.35;27.87;;;;;;;2.74;84.41;101628.39;252469;1105;115571;-64
2021/03/02 02:54:59;;;;;;;58.80;26.62;;;;;;;2.72;84.06;101623.26;252305;1104;115414;-64
2021/03/02 03:00:04;;;;;;;52.88;29.45;;;;;;;2.68;85.59;101619.23;252044;1105;115013;-64
2021/03/02 03:05:19;;;;;;;54.93;27.17;;;;;;;2.73;84.54;101614.39;252037;1104;115347;-64
2021/03/02 03:10:26;;;;;;;51.13;23.98;;;;;;;2.68;85.60;101621.87;252611;1104;115818;-64
2021/03/02 03:15:31;;;;;;;45.43;24.52;;;;;;;2.60;85.94;101619.08;251922;1105;116256;-64
2021/03/02 03:20:36;;;;;;;59.07;28.40;;;;;;;2.61;84.76;101611.05;251817;1105;140284;-64
2021/03/02 03:25:41;;;;;;;44.25;24.87;;;;;;;2.61;85.25;101610.21;252027;1105;118280;-69
2021/03/02 03:30:45;;;;;;;41.68;23.20;;;;;;;2.59;86.27;101612.98;251606;1105;116004;-68
2021/03/02 03:35:51;;;;;;;26.35;13.58;;;;;;;2.52;86.92;101598.69;251505;1105;115335;-67
2021/03/02 03:40:54;;;;;;;57.93;25.05;;;;;;;2.52;86.55;101596.06;251851;1105;115444;-66
2021/03/02 03:45:58;;;;;;;52.08;27.17;;;;;;;2.52;86.62;101588.16;252624;1105;115933;-69
2021/03/02 03:51:03;;;;;;;44.27;23.63;;;;;;;2.48;86.95;101596.47;252475;1105;116981;-66
2021/03/02 03:56:07;;;;;;;39.70;20.15;;;;;;;2.45;86.65;101592.30;251678;1105;116215;-67
2021/03/02 04:01:11;;;;;;;67.17;30.12;;;;;;;2.48;86.01;101584.14;251280;1105;115187;-66
2021/03/02 04:06:16;;;;;;;44.38;24.98;;;;;;;2.54;86.31;101580.13;252936;1105;115944;-66
2021/03/02 04:11:20;;;;;;;43.35;24.27;;;;;;;2.50;85.78;101579.56;254090;1104;115446;-66
2021/03/02 04:16:24;;;;;;;53.85;25.05;;;;;;;2.54;85.83;101582.77;254432;1104;116205;-65
2021/03/02 04:21:27;;;;;;;63.68;27.87;;;;;;;2.51;85.94;101573.34;254671;1105;115506;-65
2021/03/02 04:26:30;;;;;;;40.43;20.95;;;;;;;2.47;87.23;101576.37;254571;1104;115229;-66
2021/03/02 04:31:34;;;;;;;55.28;28.67;;;;;;;2.48;85.84;101584.14;253493;1104;115138;-65
2021/03/02 04:36:38;;;;;;;39.65;20.82;;;;;;;2.51;86.70;101568.07;254079;1104;115269;-66
2021/03/02 04:41:41;;;;;;;51.37;27.93;;;;;;;2.59;85.77;101576.13;251611;1105;115506;-65
2021/03/02 04:46:44;;;;;;;60.13;29.53;;;;;;;2.53;86.25;101583.73;252343;1105;115348;-68
2021/03/02 04:51:47;;;;;;;50.83;26.00;;;;;;;2.46;86.87;101585.23;251804;1105;115462;-68
2021/03/02 04:56:51;;;;;;;48.10;24.43;;;;;;;2.43;86.72;101575.02;252727;1105;118465;-68
2021/03/02 05:01:55;;;;;;;41.00;20.73;;;;;;;2.35;86.52;101579.16;252507;1104;116910;-69
2021/03/02 05:06:58;;;;;;;54.63;27.45;;;;;;;2.35;86.27;101575.69;251424;1105;115591;-66
2021/03/02 05:12:01;;;;;;;28.17;15.60;;;;;;;2.22;87.57;101580.36;251594;1105;116913;-68
2021/03/02 05:17:05;;;;;;;33.33;20.85;;;;;;;2.21;87.38;101582.16;251546;1105;116868;-66
2021/03/02 05:22:09;;;;;;;55.05;28.00;;;;;;;2.29;87.63;101577.06;251785;1105;115676;-66
2021/03/02 05:27:12;;;;;;;60.73;28.55;;;;;;;2.27;86.90;101583.42;251726;1105;115220;-68
2021/03/02 05:32:15;;;;;;;38.58;19.73;;;;;;;2.19;87.43;101601.68;251544;1105;115219;-68
2021/03/02 05:37:19;;;;;;;51.65;28.02;;;;;;;2.24;87.10;101595.05;251657;1105;115698;-68
2021/03/02 05:42:23;;;;;;;41.20;18.80;;;;;;;2.22;88.11;101594.35;251498;1105;116138;-65
2021/03/02 05:47:26;;;;;;;71.50;29.57;;;;;;;2.27;87.33;101599.22;253005;1104;115709;-66
2021/03/02 05:52:32;;;;;;;72.50;31.37;;;;;;;2.34;86.40;101603.80;252707;1105;115461;-67
2021/03/02 05:57:38;;;;;;;;;;;;;;;2.44;86.23;101601.20;252984;1104;117107;-68
2021/03/02 06:02:42;;;;;;;29.85;13.25;;;;;;;2.40;87.22;101599.80;254518;1104;102741;-63
2021/03/02 06:07:45;;;;;;;59.98;29.37;;;;;;;2.39;85.89;101599.94;253822;1105;115246;-64
2021/03/02 06:12:52;;;;;;;64.92;29.45;;;;;;;2.40;86.89;101597.17;253822;1105;116193;-64
2021/03/02 06:18:09;;;;;;;65.42;29.23;;;;;;;2.45;87.34;101599.37;254799;1104;115952;-64
2021/03/02 06:23:24;;;;;;;51.13;27.15;;;;;;;2.44;86.96;101595.94;254098;1105;115537;-65
2021/03/02 06:28:38;;;;;;;61.45;27.02;;;;;;;2.46;85.91;101595.77;253784;1105;115163;-64
2021/03/02 06:33:42;;;;;;;41.13;20.30;;;;;;;2.45;86.39;101594.11;253875;1104;115630;-64
2021/03/02 06:38:46;;;;;;;48.00;23.90;;;;;;;2.48;85.92;101594.66;252428;1105;115679;-65
2021/03/02 06:43:49;;;;;;;53.42;23.75;;;;;;;2.50;86.13;101589.27;252641;1105;116347;-64
2021/03/02 06:48:56;;;;;;;79.27;35.98;;;;;;;2.61;86.54;101594.41;251773;1105;116991;-65
2021/03/02 06:54:24;;;;;;;70.00;34.18;;;;;;;2.64;86.84;101596.77;251442;1105;115907;-65
2021/03/02 06:59:29;;;;;;;34.15;16.07;;;;;;;2.56;86.03;101596.63;252423;1105;116068;-64
2021/03/02 07:04:32;;;;;;;65.55;30.72;;;;;;;2.64;85.33;101602.04;252899;1105;115537;-64
2021/03/02 07:09:40;;;;;;;37.65;19.65;;;;;;;2.53;85.55;101602.16;252083;1104;116049;-65
2021/03/02 07:14:45;;;;;;;58.60;27.93;;;;;;;2.62;85.60;101601.34;252929;1104;115302;-64
2021/03/02 07:20:09;;;;;;;40.38;19.57;;;;;;;2.65;85.94;101598.44;251791;1105;195621;-67
2021/03/02 07:25:17;;;;;;;39.50;16.97;;;;;;;2.75;85.81;101611.62;253176;1104;115056;-65
2021/03/02 07:30:22;;;;;;;75.37;31.27;;;;;;;2.89;85.57;101608.55;251828;1105;115594;-64
2021/03/02 07:35:26;;;;;;;59.20;26.07;;;;;;;2.90;85.50;101616.32;252051;1105;115285;-65
2021/03/02 07:40:42;;;;;;;49.13;25.12;;;;;;;2.97;85.74;101613.97;253633;1104;115544;-65
2021/03/02 07:45:46;;;;;;;67.00;31.25;;;;;;;3.08;84.09;101594.52;251584;1105;116671;-65
2021/03/02 07:51:18;;;;;;;63.63;27.58;;;;;;;3.07;85.50;101591.06;251368;1105;115718;-65
2021/03/02 07:56:23;;;;;;;67.95;30.25;;;;;;;3.25;84.08;101599.09;251253;1105;117062;-69
2021/03/02 08:01:26;;;;;;;80.35;33.40;;;;;;;3.39;84.57;101598.63;251587;1105;116339;-65
2021/03/02 08:06:35;;;;;;;68.45;30.45;;;;;;;3.38;82.83;101594.33;251157;1105;117691;-66
2021/03/02 08:11:38;;;;;;;51.13;29.40;;;;;;;3.48;82.12;101596.95;252375;1105;116523;-65
2021/03/02 08:17:20;;;;;;;59.65;28.00;;;;;;;3.61;82.87;101585.13;253437;1105;117847;-64
2021/03/02 08:22:23;;;;;;;51.77;27.98;;;;;;;3.80;82.65;101591.28;254156;1105;116722;-65
2021/03/02 08:27:41;;;;;;;53.65;26.35;;;;;;;3.88;81.75;101596.67;255023;1104;118928;-64
2021/03/02 08:32:45;;;;;;;43.78;24.12;;;;;;;3.93;81.57;101594.44;254834;1105;117902;-65
2021/03/02 08:37:52;;;;;;;58.48;27.87;;;;;;;4.19;81.04;101599.84;254761;1105;117646;-63
2021/03/02 08:43:08;;;;;;;60.35;25.90;;;;;;;4.45;79.99;101603.43;251401;1105;117273;-67
2021/03/02 08:48:31;;;;;;;29.27;15.72;;;;;;;4.46;79.44;101598.98;252108;1105;117291;-65
2021/03/02 08:53:34;;;;;;;53.23;28.23;;;;;;;4.53;79.02;101618.53;253266;1105;117365;-63
2021/03/02 08:58:41;;;;;;;48.43;24.50;;;;;;;4.77;78.56;101610.02;253149;1105;117058;-65
2021/03/02 09:03:46;;;;;;;64.77;26.17;;;;;;;4.87;77.89;101601.03;251182;1105;116764;-68
2021/03/02 09:08:56;;;;;;;27.13;13.45;;;;;;;5.27;76.40;101597.03;251054;1105;117109;-63
2021/03/02 09:14:07;;;;;;;29.55;12.45;;;;;;;5.25;76.03;101604.28;251011;1105;117115;-63
2021/03/02 09:19:12;;;;;;;26.40;14.90;;;;;;;5.40;75.14;101590.36;251253;1105;117572;-62
2021/03/02 09:24:22;;;;;;;58.40;25.62;;;;;;;5.69;76.31;101587.38;252410;1105;116407;-61
2021/03/02 09:29:28;;;;;;;51.60;27.53;;;;;;;5.81;73.96;101589.76;253041;1104;117147;-63
2021/03/02 09:34:34;;;;;;;;;;;;;;;5.97;73.81;101598.62;251462;1105;118251;-65
2021/03/02 09:39:40;;;;;;;50.35;26.62;;;;;;;6.25;74.19;101620.39;252239;1105;104537;-64
2021/03/02 09:44:52;;;;;;;31.10;18.35;;;;;;;6.32;73.11;101610.83;252769;1105;118120;-64
2021/03/02 09:49:59;;;;;;;51.70;27.85;;;;;;;6.24;73.29;101617.91;251928;1105;122713;-63
2021/03/02 09:55:17;;;;;;;44.35;19.48;;;;;;;6.69;71.58;101612.23;252887;1104;115489;-67
2021/03/02 10:00:36;;;;;;;50.78;24.43;;;;;;;6.66;71.76;101617.86;253021;1104;115884;-65
2021/03/02 10:06:00;;;;;;;46.05;22.10;;;;;;;6.86;71.12;101621.02;252326;1104;116186;-64
2021/03/02 10:11:12;;;;;;;56.40;27.27;;;;;;;7.05;70.92;101624.16;252027;1104;115471;-68
2021/03/02 10:16:21;;;;;;;43.17;19.87;;;;;;;7.15;69.97;101625.83;251178;1105;116031;-63
2021/03/02 10:21:36;;;;;;;47.27;23.25;;;;;;;7.16;69.71;101620.36;251037;1105;116776;-63
2021/03/02 10:26:39;;;;;;;46.80;21.37;;;;;;;7.27;68.86;101613.91;252845;1104;115710;-65
2021/03/02 10:31:42;;;;;;;49.15;23.00;;;;;;;7.41;69.37;101606.08;254118;1105;115439;-63
2021/03/02 10:36:51;;;;;;;55.33;26.97;;;;;;;7.48;68.91;101597.45;254376;1104;117359;-64
2021/03/02 10:41:55;;;;;;;47.03;22.27;;;;;;;7.80;69.32;101594.70;254609;1105;115534;-65
2021/03/02 10:46:57;;;;;;;45.30;24.23;;;;;;;7.96;67.19;101604.42;254638;1104;116763;-65
2021/03/02 10:52:01;;;;;;;36.17;21.33;;;;;;;8.05;65.85;101609.54;254115;1105;116028;-63
2021/03/02 10:57:03;;;;;;;46.77;25.85;;;;;;;8.34;65.58;101606.27;252747;1105;115479;-65
2021/03/02 11:02:07;;;;;;;44.58;23.60;;;;;;;8.47;66.32;101586.28;253187;1105;117005;-63
2021/03/02 11:07:12;;;;;;;40.05;23.07;;;;;;;8.50;64.14;101585.94;253404;1104;116680;-63
2021/03/02 11:12:15;;;;;;;28.02;17.25;;;;;;;8.52;64.38;101576.78;251405;1105;117251;-65
2021/03/02 11:17:18;;;;;;;49.65;26.75;;;;;;;8.58;64.21;101562.77;251591;1105;117137;-64
2021/03/02 11:22:21;;;;;;;40.73;23.00;;;;;;;8.65;62.96;101565.55;251202;1105;117987;-64
2021/03/02 11:27:24;;;;;;;38.03;18.63;;;;;;;8.67;63.45;101543.09;251330;1105;117029;-64
2021/03/02 11:32:27;;;;;;;47.55;24.72;;;;;;;8.75;63.71;101539.55;251425;1105;116627;-63
2021/03/02 11:37:30;;;;;;;34.63;17.98;;;;;;;8.73;61.73;101530.93;252687;1105;116311;-63
2021/03/02 11:42:34;;;;;;;44.33;25.23;;;;;;;9.00;62.66;101532.19;252109;1105;116454;-62
2021/03/02 11:47:51;;;;;;;45.03;24.40;;;;;;;9.14;62.12;101525.25;251536;1105;115432;-63
2021/03/02 11:52:55;;;;;;;28.40;15.65;;;;;;;9.22;60.54;101522.48;251927;1105;115765;-64
2021/03/02 11:57:57;;;;;;;48.85;26.57;;;;;;;9.48;61.28;101512.21;251760;1105;115289;-68
2021/03/02 12:03:00;;;;;;;39.98;23.92;;;;;;;9.60;60.98;101504.59;252334;1105;115357;-64
2021/03/02 12:08:04;;;;;;;38.00;23.45;;;;;;;9.68;61.15;101501.84;252870;1104;115608;-66
2021/03/02 12:13:08;;;;;;;37.27;20.73;;;;;;;9.76;59.91;101497.24;252074;1105;115976;-67
2021/03/02 12:18:10;;;;;;;38.95;22.05;;;;;;;9.75;60.81;101503.58;252977;1105;116093;-67
2021/03/02 12:23:13;;;;;;;25.68;14.03;;;;;;;9.76;60.36;101501.74;251463;1105;115246;-64
2021/03/02 12:28:16;;;;;;;35.43;17.87;;;;;;;9.96;61.80;101494.80;251092;1105;116302;-66
2021/03/02 12:33:19;;;;;;;38.02;22.40;;;;;;;10.00;60.22;101485.42;252961;1105;115260;-64
2021/03/02 12:38:21;;;;;;;43.23;21.02;;;;;;;10.04;58.22;101469.89;254303;1105;116426;-64
2021/03/02 12:43:24;;;;;;;37.73;21.97;;;;;;;10.08;55.71;101479.16;254380;1104;116031;-65
2021/03/02 12:48:27;;;;;;;39.78;23.00;;;;;;;10.23;57.95;101466.63;254647;1105;116032;-63
2021/03/02 12:53:30;;;;;;;26.05;16.65;;;;;;;10.37;58.41;101468.41;253478;1105;118250;-63
2021/03/02 12:58:33;;;;;;;43.10;20.08;;;;;;;10.52;56.02;101470.16;253531;1104;117039;-66
2021/03/02 13:03:43;;;;;;;31.75;17.23;;;;;;;10.64;54.94;101465.97;250987;1105;117152;-65
2021/03/02 13:08:47;;;;;;;30.97;16.42;;;;;;;10.55;54.70;101459.94;251119;1105;118054;-65
2021/03/02 13:13:51;;;;;;;18.60;12.07;;;;;;;10.48;55.04;101463.56;252042;1105;117404;-66
2021/03/02 13:18:54;;;;;;;38.75;17.98;;;;;;;10.49;55.46;101451.88;251976;1105;116830;-64
2021/03/02 13:23:58;;;;;;;16.87;9.83;;;;;;;10.29;53.25;101441.88;250915;1105;116867;-65
2021/03/02 13:29:12;;;;;;;23.00;13.05;;;;;;;10.39;53.42;101434.39;251808;1105;120250;-65
2021/03/02 13:34:18;;;;;;;21.23;13.15;;;;;;;10.38;52.65;101427.41;251500;1105;115653;-64
2021/03/02 13:39:23;;;;;;;25.52;14.53;;;;;;;10.37;54.27;101431.09;251878;1105;115366;-68
2021/03/02 13:44:29;;;;;;;22.17;12.75;;;;;;;10.35;53.62;101434.96;251819;1105;116202;-67
2021/03/02 13:49:33;;;;;;;28.87;16.05;;;;;;;10.37;53.68;101433.76;251962;1105;115946;-67
2021/03/02 13:54:40;;;;;;;20.08;12.60;;;;;;;10.38;54.14;101439.91;251640;1105;116949;-66
2021/03/02 13:59:45;;;;;;;15.27;10.77;;;;;;;10.33;53.83;101429.00;252640;1105;116501;-64
2021/03/02 14:04:48;;;;;;;24.12;13.48;;;;;;;10.29;54.37;101428.55;251884;1105;117264;-63
2021/03/02 14:09:53;;;;;;;23.42;13.93;;;;;;;10.31;54.42;101428.36;253595;1105;117470;-65
2021/03/02 14:14:58;;;;;;;10.88;7.42;;;;;;;10.17;52.98;101418.55;252737;1104;116439;-65
2021/03/02 14:20:06;;;;;;;27.80;14.85;;;;;;;10.19;54.77;101419.19;251756;1105;116304;-64
2021/03/02 14:25:25;;;;;;;20.90;13.73;;;;;;;10.13;55.71;101408.27;253639;1104;115988;-65
2021/03/02 14:30:30;;;;;;;20.82;12.20;;;;;;;10.06;56.15;101407.41;254258;1105;115587;-66
2021/03/02 14:35:34;;;;;;;37.42;18.65;;;;;;;10.04;56.59;101405.95;254380;1104;116739;-65
2021/03/02 14:40:39;;;;;;;34.55;20.75;;;;;;;10.00;56.66;101399.34;253483;1105;117064;-66
2021/03/02 14:45:46;;;;;;;33.55;18.27;;;;;;;9.94;57.25;101410.75;252324;1105;116890;-65
2021/03/02 14:50:57;;;;;;;22.45;11.93;;;;;;;9.93;58.65;101407.27;254383;1105;116485;-67
2021/03/02 14:56:04;;;;;;;20.60;13.65;;;;;;;9.89;58.69;101405.99;253826;1105;115598;-66
2021/03/02 15:01:08;;;;;;;16.73;9.45;;;;;;;9.80;57.67;101402.61;254358;1105;115275;-65
2021/03/02 15:06:18;;;;;;;18.20;11.97;;;;;;;9.84;57.30;101402.23;253430;1105;115779;-66
2021/03/02 15:11:22;;;;;;;21.77;13.03;;;;;;;9.75;57.73;101405.05;253403;1105;115589;-67
2021/03/02 15:16:25;;;;;;;22.30;12.20;;;;;;;9.70;57.58;101412.77;251862;1105;115382;-67
2021/03/02 15:21:30;;;;;;;23.07;14.25;;;;;;;9.66;57.49;101402.67;251146;1105;116215;-71
2021/03/02 15:26:34;;;;;;;23.32;15.30;;;;;;;9.59;57.89;101405.26;253858;1105;116848;-65
2021/03/02 15:31:40;;;;;;;28.55;19.17;;;;;;;9.52;57.99;101399.02;252202;1105;115682;-65
2021/03/02 15:36:46;;;;;;;27.67;16.25;;;;;;;9.49;58.08;101396.73;251713;1105;116061;-68
2021/03/02 15:41:49;;;;;;;29.73;14.43;;;;;;;9.44;58.85;101404.48;252169;1105;116990;-65
2021/03/02 15:46:53;;;;;;;28.70;15.78;;;;;;;9.32;59.26;101393.48;250889;1105;115572;-66
2021/03/02 15:51:59;;;;;;;22.97;14.80;;;;;;;9.09;60.26;101398.92;251412;1104;116130;-65
2021/03/02 15:57:04;;;;;;;28.60;16.32;;;;;;;8.95;61.09;101399.73;252677;1104;115492;-67
2021/03/02 16:02:12;;;;;;;27.43;16.17;;;;;;;8.80;61.39;101398.92;251475;1105;116105;-66
2021/03/02 16:07:26;;;;;;;24.30;13.77;;;;;;;8.62;62.51;101406.41;251458;1105;115958;-65
2021/03/02 16:12:30;;;;;;;27.93;15.05;;;;;;;8.46;62.26;101402.08;253217;1104;116099;-65
2021/03/02 16:17:43;;;;;;;27.07;16.23;;;;;;;8.31;63.00;101415.28;251229;1105;115953;-64
2021/03/02 16:22:53;;;;;;;44.20;15.43;;;;;;;8.13;64.43;101411.30;251826;1105;116365;-64
2021/03/02 16:28:01;;;;;;;26.52;13.78;;;;;;;7.94;64.78;101407.30;251742;1105;115436;-63
2021/03/02 16:33:10;;;;;;;34.43;18.17;;;;;;;7.81;65.11;101410.52;251379;1105;115111;-65
2021/03/02 16:38:16;;;;;;;25.97;17.40;;;;;;;7.68;65.92;101416.39;253916;1105;137914;-63
2021/03/02 16:43:20;;;;;;;30.80;17.50;;;;;;;7.51;67.68;101412.19;254373;1105;116466;-63
2021/03/02 16:48:26;;;;;;;30.80;18.12;;;;;;;7.33;66.61;101422.23;254457;1105;115238;-64
2021/03/02 16:53:35;;;;;;;31.40;17.30;;;;;;;7.09;67.83;101426.61;254187;1105;115845;-63
2021/03/02 16:58:46;;;;;;;;;;;;;;;6.86;68.36;101433.64;251568;1105;117197;-66
2021/03/02 17:03:55;;;;;;;29.90;18.07;;;;;;;6.64;69.58;101431.70;255306;1104;103808;-66
2021/03/02 17:09:04;;;;;;;28.95;17.32;;;;;;;6.47;69.80;101425.57;254428;1105;116128;-64
2021/03/02 17:14:07;;;;;;;30.12;18.05;;;;;;;6.36;70.03;101437.34;253421;1105;115246;-67
2021/03/02 17:19:15;;;;;;;37.30;17.90;;;;;;;6.19;70.19;101432.20;252573;1105;115732;-64
2021/03/02 17:24:19;;;;;;;32.10;18.90;;;;;;;5.91;71.13;101432.50;251652;1105;116863;-63
2021/03/02 17:29:23;;;;;;;35.23;18.95;;;;;;;5.64;72.07;101436.21;252167;1105;116883;-65
2021/03/02 17:34:28;;;;;;;30.90;17.48;;;;;;;5.41;73.71;101441.27;251722;1105;116098;-65
2021/03/02 17:39:32;;;;;;;36.65;18.50;;;;;;;5.28;75.28;101434.75;251310;1105;115829;-63
2021/03/02 17:44:38;;;;;;;28.00;17.53;;;;;;;5.16;74.47;101442.16;251455;1105;116123;-64
2021/03/02 17:49:42;;;;;;;34.40;17.23;;;;;;;4.88;76.89;101448.61;251704;1105;115608;-65
2021/03/02 17:54:45;;;;;;;29.52;18.17;;;;;;;4.80;77.14;101446.73;251971;1105;115921;-69
2021/03/02 17:59:48;;;;;;;52.27;24.95;;;;;;;4.66;75.87;101452.56;251362;1105;116490;-64
2021/03/02 18:04:52;;;;;;;52.70;24.65;;;;;;;4.40;75.89;101445.45;251932;1105;118581;-64
2021/03/02 18:09:55;;;;;;;51.75;24.98;;;;;;;4.23;76.88;101454.22;251436;1105;116986;-67
2021/03/02 18:14:59;;;;;;;51.70;26.75;;;;;;;4.08;77.34;101450.44;251124;1105;219163;-67
2021/03/02 18:20:07;;;;;;;53.98;29.07;;;;;;;3.94;76.74;101458.90;251613;1105;117759;-65
2021/03/02 18:25:11;;;;;;;55.43;32.03;;;;;;;3.82;76.20;101457.44;252836;1104;116783;-65
2021/03/02 18:30:14;;;;;;;56.23;30.57;;;;;;;3.68;77.88;101458.75;252630;1105;117177;-64
2021/03/02 18:35:17;;;;;;;49.38;27.80;;;;;;;3.51;77.89;101456.92;253257;1105;116270;-64
2021/03/02 18:40:34;;;;;;;63.17;35.48;;;;;;;3.37;77.74;101451.15;251634;1105;116566;-64
2021/03/02 18:45:38;;;;;;;56.95;27.77;;;;;;;3.30;78.49;101463.27;252501;1105;118346;-63
2021/03/02 18:50:43;;;;;;;45.60;25.52;;;;;;;3.21;77.50;101455.40;252065;1105;116578;-64
2021/03/02 18:55:47;;;;;;;48.68;25.48;;;;;;;3.12;77.70;101464.16;254398;1105;116138;-63
2021/03/02 19:00:50;;;;;;;57.33;27.50;;;;;;;3.03;80.12;101469.34;254664;1105;115622;-65
2021/03/02 19:05:55;;;;;;;51.90;27.37;;;;;;;2.96;79.05;101473.52;254287;1104;116294;-64
2021/03/02 19:10:58;;;;;;;45.85;25.25;;;;;;;2.86;80.17;101477.97;254566;1104;115487;-64
2021/03/02 19:16:04;;;;;;;54.48;32.05;;;;;;;2.84;79.65;101482.55;254402;1105;116365;-66
2021/03/02 19:21:09;;;;;;;60.77;27.03;;;;;;;2.60;79.22;101482.17;253824;1104;115777;-68
2021/03/02 19:26:13;;;;;;;42.08;24.50;;;;;;;2.30;80.60;101483.99;253316;1105;115994;-64
2021/03/02 19:31:17;;;;;;;58.23;29.72;;;;;;;2.15;80.58;101476.63;251880;1104;115236;-63
2021/03/02 19:36:22;;;;;;;72.55;34.88;;;;;;;2.06;81.01;101483.57;252887;1105;116069;-66
2021/03/02 19:41:26;;;;;;;66.87;35.75;;;;;;;1.97;81.45;101487.01;251613;1105;115819;-66
2021/03/02 19:46:29;;;;;;;79.40;41.20;;;;;;;1.87;80.74;101484.35;252050;1105;117500;-63
2021/03/02 19:51:33;;;;;;;83.73;48.60;;;;;;;1.79;82.24;101483.39;252039;1105;117229;-62
2021/03/02 19:56:37;;;;;;;67.80;39.73;;;;;;;1.78;80.82;101484.36;251731;1105;116107;-67
2021/03/02 20:01:41;;;;;;;57.65;29.30;;;;;;;1.68;82.02;101479.90;252075;1105;117670;-66
2021/03/02 20:06:45;;;;;;;68.10;38.47;;;;;;;1.60;82.63;101492.88;252629;1105;115284;-65
2021/03/02 20:11:49;;;;;;;38.10;23.45;;;;;;;1.43;81.97;101487.43;251554;1105;116210;-66
2021/03/02 20:16:52;;;;;;;61.02;33.85;;;;;;;1.29;82.68;101488.61;252991;1105;115969;-67
2021/03/02 20:21:58;;;;;;;58.70;35.13;;;;;;;1.22;82.90;101490.92;251845;1105;116229;-68
2021/03/02 20:27:02;;;;;;;50.33;28.87;;;;;;;1.09;83.38;101486.86;253409;1105;207178;-67
2021/03/02 20:32:07;;;;;;;114.12;46.85;;;;;;;0.92;82.62;101486.48;252178;1105;115008;-64
2021/03/02 20:37:11;;;;;;;66.90;33.13;;;;;;;0.85;83.75;101479.28;252766;1105;115515;-65
2021/03/02 20:42:15;;;;;;;61.92;32.73;;;;;;;0.77;83.04;101476.45;253039;1105;115265;-65
2021/03/02 20:47:19;;;;;;;67.17;34.63;;;;;;;0.70;82.82;101480.55;252464;1105;117434;-65
2021/03/02 20:52:24;;;;;;;67.73;35.50;;;;;;;0.76;84.24;101480.87;251445;1105;117942;-66
2021/03/02 20:57:29;;;;;;;126.27;52.43;;;;;;;0.76;84.06;101480.87;252200;1105;116834;-66
2021/03/02 21:02:33;;;;;;;88.45;42.62;;;;;;;0.67;82.91;101479.01;254759;1105;117491;-67
2021/03/02 21:07:38;;;;;;;103.97;39.70;;;;;;;0.54;82.11;101486.25;254722;1105;120356;-66
2021/03/02 21:12:42;;;;;;;95.77;44.53;;;;;;;0.59;83.85;101476.21;253504;1104;117076;-66
2021/03/02 21:17:46;;;;;;;98.72;44.25;;;;;;;0.49;83.22;101480.55;254693;1104;115093;-65
2021/03/02 21:22:52;;;;;;;62.90;29.30;;;;;;;0.32;82.59;101476.67;254337;1105;116691;-65
2021/03/02 21:27:56;;;;;;;88.60;44.15;;;;;;;0.28;82.59;101477.91;254699;1104;116672;-65
2021/03/02 21:32:59;;;;;;;66.80;33.53;;;;;;;0.20;82.91;101483.78;254406;1104;115871;-66
2021/03/02 21:38:03;;;;;;;68.02;30.32;;;;;;;0.07;83.94;101483.09;253603;1105;115787;-69
2021/03/02 21:43:06;;;;;;;72.62;36.95;;;;;;;0.08;83.54;101481.30;253032;1105;116126;-67
2021/03/02 21:48:11;;;;;;;78.40;44.03;;;;;;;0.09;83.60;101480.34;251389;1105;116366;-65
2021/03/02 21:53:14;;;;;;;81.90;37.13;;;;;;;-0.06;83.24;101477.20;251767;1105;118357;-68
2021/03/02 21:58:20;;;;;;;97.40;52.13;;;;;;;-0.16;83.53;101481.50;251930;1105;116559;-65
2021/03/02 22:03:34;;;;;;;89.97;47.77;;;;;;;-0.27;83.60;101482.34;251755;1105;115977;-65
2021/03/02 22:08:39;;;;;;;101.80;48.42;;;;;;;-0.38;83.87;101470.12;252771;1105;115775;-63
2021/03/02 22:13:43;;;;;;;96.30;49.23;;;;;;;-0.34;83.66;101465.47;251646;1105;116688;-63
2021/03/02 22:18:46;;;;;;;82.95;41.30;;;;;;;-0.48;83.72;101466.55;251163;1105;117779;-67
2021/03/02 22:23:51;;;;;;;88.63;46.03;;;;;;;-0.56;84.22;101468.09;252672;1105;116487;-68
2021/03/02 22:28:54;;;;;;;99.20;40.33;;;;;;;-0.63;83.85;101473.02;251598;1105;116585;-67
2021/03/02 22:33:58;;;;;;;90.60;42.40;;;;;;;-0.73;84.59;101475.50;251499;1105;116355;-64
2021/03/02 22:39:03;;;;;;;89.42;42.15;;;;;;;-0.72;84.87;101474.55;252677;1104;117122;-64
2021/03/02 22:44:11;;;;;;;88.60;41.98;;;;;;;-0.76;84.55;101467.88;251370;1105;116490;-65
2021/03/02 22:49:15;;;;;;;100.00;45.83;;;;;;;-0.70;84.91;101466.58;253318;1103;116519;-65
2021/03/02 22:54:19;;;;;;;112.47;54.05;;;;;;;-0.82;84.17;101467.52;252910;1105;118200;-65